createdAt,value
2023-05-17T00:02:21.059Z,5.22
2023-05-17T00:04:47.626Z,5.47
2023-05-17T00:07:14.434Z,6.85
2023-05-17T00:09:41.871Z,6.40
2023-05-17T00:12:08.626Z,6.10
2023-05-17T00:14:36.722Z,7.15
2023-05-17T00:17:03.445Z,6.13
2023-05-17T00:19:30.433Z,5.97
2023-05-17T00:21:58.652Z,5.50
2023-05-17T00:24:25.294Z,5.32
2023-05-17T00:26:51.731Z,5.60
2023-05-17T00:29:18.480Z,5.95
2023-05-17T00:31:44.983Z,6.00
2023-05-17T00:34:11.557Z,6.13
2023-05-17T00:36:39.168Z,6.43
2023-05-17T00:39:06.730Z,7.35
2023-05-17T00:41:33.923Z,6.22
2023-05-17T00:44:01.006Z,5.90
2023-05-17T00:46:27.712Z,6.30
2023-05-17T00:48:54.413Z,5.10
2023-05-17T00:51:21.129Z,6.15
2023-05-17T00:53:47.899Z,6.72
2023-05-17T00:56:14.520Z,6.55
2023-05-17T00:58:42.573Z,6.07
2023-05-17T01:01:09.313Z,6.53
2023-05-17T01:03:36.264Z,6.82
2023-05-17T01:06:06.332Z,6.38
2023-05-17T01:08:34.153Z,7.25
2023-05-17T01:11:07.145Z,7.53
2023-05-17T01:13:38.242Z,6.82
2023-05-17T01:16:16.468Z,6.50
2023-05-17T01:19:04.114Z,7.57
2023-05-17T01:21:47.242Z,8.05
2023-05-17T01:24:33.538Z,6.40
2023-05-17T01:27:00.652Z,7.70
2023-05-17T01:29:29.067Z,7.30
2023-05-17T01:31:56.752Z,7.60
2023-05-17T01:34:27.197Z,7.75
2023-05-17T01:36:53.879Z,7.23
2023-05-17T01:39:20.610Z,7.18
2023-05-17T01:41:51.769Z,7.22
2023-05-17T01:44:18.303Z,8.48
2023-05-17T01:46:46.021Z,7.80
2023-05-17T01:49:18.243Z,7.83
2023-05-17T01:51:49.679Z,7.30
2023-05-17T01:54:21.029Z,8.35
2023-05-17T01:56:48.959Z,7.55
2023-05-17T01:59:20.347Z,7.95
2023-05-17T02:01:47.650Z,7.67
2023-05-17T02:04:14.478Z,7.72
2023-05-17T02:06:41.224Z,7.95
2023-05-17T02:09:07.841Z,8.00
2023-05-17T02:11:36.328Z,7.35
2023-05-17T02:14:02.939Z,8.13
2023-05-17T02:16:29.625Z,8.90
2023-05-17T02:18:57.001Z,7.63
2023-05-17T02:21:23.651Z,7.40
2023-05-17T02:23:51.447Z,8.18
2023-05-17T02:26:19.477Z,7.57
2023-05-17T02:28:46.889Z,7.32
2023-05-17T02:31:13.588Z,8.73
2023-05-17T02:33:40.191Z,8.68
2023-05-17T02:36:07.099Z,8.90
2023-05-17T02:38:33.568Z,7.67
2023-05-17T02:41:00.064Z,7.18
2023-05-17T02:43:26.718Z,7.13
2023-05-17T02:45:53.441Z,7.15
2023-05-17T02:48:20.647Z,7.70
2023-05-17T02:50:47.470Z,8.00
2023-05-17T02:53:14.194Z,7.43
2023-05-17T02:55:40.734Z,7.30
2023-05-17T02:58:07.245Z,8.18
2023-05-17T03:00:33.895Z,7.72
2023-05-17T03:03:02.045Z,7.63
2023-05-17T03:05:29.026Z,8.70
2023-05-17T03:07:55.820Z,7.65
2023-05-17T03:10:25.547Z,7.18
2023-05-17T03:12:52.139Z,7.55
2023-05-17T03:15:18.721Z,7.17
2023-05-17T03:17:45.362Z,7.82
2023-05-17T03:20:12.216Z,9.02
2023-05-17T03:22:39.375Z,7.72
2023-05-17T03:25:07.150Z,7.95
2023-05-17T03:27:33.743Z,7.57
2023-05-17T03:30:02.742Z,8.20
2023-05-17T03:32:29.406Z,8.00
2023-05-17T03:34:56.169Z,7.90
2023-05-17T03:37:22.926Z,7.88
2023-05-17T03:39:49.612Z,7.63
2023-05-17T03:42:16.576Z,9.15
2023-05-17T03:44:43.582Z,9.43
2023-05-17T03:47:10.732Z,7.80
2023-05-17T03:49:37.746Z,9.13
2023-05-17T03:52:04.789Z,8.40
2023-05-17T03:54:31.755Z,8.18
2023-05-17T03:56:58.534Z,7.85
2023-05-17T03:59:25.639Z,7.82
2023-05-17T04:01:52.224Z,8.77
2023-05-17T04:04:19.160Z,6.97
2023-05-17T04:06:45.871Z,7.70
2023-05-17T04:09:14.028Z,8.10
2023-05-17T04:11:42.366Z,7.63
2023-05-17T04:14:09.083Z,7.70
2023-05-17T04:16:35.681Z,7.90
2023-05-17T04:19:02.491Z,8.25
2023-05-17T04:21:29.210Z,8.40
2023-05-17T04:23:58.753Z,8.57
2023-05-17T04:26:26.947Z,9.00
2023-05-17T04:28:54.892Z,7.87
2023-05-17T04:31:22.485Z,8.07
2023-05-17T04:33:49.207Z,8.43
2023-05-17T04:36:16.128Z,8.50
2023-05-17T04:38:42.756Z,8.02
2023-05-17T04:41:09.851Z,8.50
2023-05-17T04:43:37.494Z,8.55
2023-05-17T04:46:05.728Z,7.88
2023-05-17T04:48:33.889Z,7.03
2023-05-17T04:51:01.181Z,7.07
2023-05-17T04:53:27.835Z,6.60
2023-05-17T04:55:54.466Z,7.07
2023-05-17T04:58:22.112Z,7.60
2023-05-17T05:00:48.782Z,6.75
2023-05-17T05:03:16.513Z,7.38
2023-05-17T05:05:43.088Z,6.13
2023-05-17T05:08:10.660Z,6.93
2023-05-17T05:10:37.248Z,6.43
2023-05-17T05:13:04.731Z,5.80
2023-05-17T05:15:32.161Z,5.93
2023-05-17T05:17:59.150Z,6.53
2023-05-17T05:20:27.906Z,6.15
2023-05-17T05:22:55.910Z,6.03
2023-05-17T05:25:22.465Z,6.53
2023-05-17T05:27:49.170Z,6.82
2023-05-17T05:30:22.439Z,5.80
2023-05-17T05:32:51.104Z,6.28
2023-05-17T05:35:18.327Z,6.05
2023-05-17T05:37:45.334Z,6.93
2023-05-17T05:40:12.180Z,6.70
2023-05-17T05:42:38.724Z,5.87
2023-05-17T05:45:05.528Z,6.05
2023-05-17T05:47:32.608Z,5.75
2023-05-17T05:49:59.209Z,6.43
2023-05-17T05:52:25.781Z,8.27
2023-05-17T05:54:54.432Z,5.67
2023-05-17T05:57:21.114Z,11.05
2023-05-17T05:59:48.011Z,5.40
2023-05-17T06:02:14.544Z,4.13
2023-05-17T06:04:45.754Z,3.67
2023-05-17T06:07:12.971Z,4.27
2023-05-17T06:09:39.985Z,9.90
2023-05-17T06:12:06.539Z,9.13
2023-05-17T06:14:33.088Z,5.00
2023-05-17T06:16:59.949Z,4.65
2023-05-17T06:19:27.013Z,6.60
2023-05-17T06:21:53.586Z,4.65
2023-05-17T06:24:20.184Z,3.53
2023-05-17T06:26:47.476Z,6.78
2023-05-17T06:29:14.014Z,4.28
2023-05-17T06:31:40.798Z,7.27
2023-05-17T06:34:08.431Z,6.45
2023-05-17T06:36:36.633Z,4.25
2023-05-17T06:39:05.402Z,4.68
2023-05-17T06:41:32.126Z,4.07
2023-05-17T06:43:59.316Z,4.10
2023-05-17T06:46:26.150Z,3.58
2023-05-17T06:48:54.356Z,6.32
2023-05-17T06:51:21.664Z,4.00
2023-05-17T06:53:48.625Z,5.88
2023-05-17T06:56:15.472Z,4.53
2023-05-17T06:58:42.296Z,4.65
2023-05-17T07:01:09.038Z,4.93
2023-05-17T07:03:36.090Z,4.07
2023-05-17T07:06:03.495Z,6.00
2023-05-17T07:08:30.225Z,3.53
2023-05-17T07:10:57.087Z,3.75
2023-05-17T07:13:24.037Z,3.80
2023-05-17T07:15:50.813Z,3.33
2023-05-17T07:18:17.986Z,4.20
2023-05-17T07:20:44.747Z,6.47
2023-05-17T07:23:11.616Z,4.60
2023-05-17T07:25:43.268Z,3.90
2023-05-17T07:28:09.921Z,4.25
2023-05-17T07:30:36.914Z,5.53
2023-05-17T07:33:03.657Z,4.67
2023-05-17T07:35:30.612Z,6.95
2023-05-17T07:37:57.253Z,8.93
2023-05-17T07:40:24.582Z,6.55
2023-05-17T07:42:51.483Z,7.60
2023-05-17T07:45:18.702Z,7.47
2023-05-17T07:47:46.417Z,8.20
2023-05-17T07:50:13.453Z,10.43
2023-05-17T07:52:43.113Z,9.30
2023-05-17T07:55:10.226Z,9.80
2023-05-17T07:57:38.082Z,13.37
2023-05-17T08:00:05.247Z,10.50
2023-05-17T08:02:32.107Z,9.70
2023-05-17T08:04:58.895Z,10.15
2023-05-17T08:07:26.070Z,9.77
2023-05-17T08:09:52.567Z,9.97
2023-05-17T08:12:20.201Z,10.45
2023-05-17T08:14:46.998Z,10.38
2023-05-17T08:17:13.536Z,11.05
2023-05-17T08:19:41.253Z,11.10
2023-05-17T08:22:07.787Z,11.03
2023-05-17T08:24:34.559Z,11.27
2023-05-17T08:27:02.536Z,13.43
2023-05-17T08:29:29.676Z,13.15
2023-05-17T08:31:56.920Z,13.98
2023-05-17T08:34:25.067Z,14.00
2023-05-17T08:36:53.514Z,12.57
2023-05-17T08:39:21.425Z,14.88
2023-05-17T08:41:49.926Z,13.85
2023-05-17T08:44:19.555Z,18.48
2023-05-17T08:46:54.117Z,14.17
2023-05-17T08:49:22.519Z,16.30
2023-05-17T08:51:51.964Z,16.20
2023-05-17T08:54:18.446Z,14.10
2023-05-17T08:56:45.291Z,12.30
2023-05-17T08:59:13.964Z,13.17
2023-05-17T09:01:41.980Z,12.82
2023-05-17T09:04:12.658Z,15.15
2023-05-17T09:06:39.721Z,13.35
2023-05-17T09:09:09.214Z,13.68
2023-05-17T09:11:37.208Z,15.07
2023-05-17T09:14:06.083Z,14.43
2023-05-17T09:16:33.977Z,16.15
2023-05-17T09:19:01.437Z,14.88
2023-05-17T09:21:31.419Z,15.27
2023-05-17T09:26:41.237Z,13.82
2023-05-17T09:29:08.763Z,16.15
2023-05-17T09:31:35.500Z,16.20
2023-05-17T09:34:02.346Z,15.45
2023-05-17T09:36:30.527Z,16.57
2023-05-17T09:39:01.964Z,20.17
2023-05-17T09:41:30.964Z,18.45
2023-05-17T09:44:08.659Z,19.85
2023-05-17T09:46:36.312Z,15.93
2023-05-17T09:49:04.348Z,13.30
2023-05-17T09:51:35.638Z,14.00
2023-05-17T09:54:02.768Z,13.75
2023-05-17T09:56:30.128Z,16.85
2023-05-17T09:58:58.181Z,14.50
2023-05-17T10:01:29.729Z,14.70
2023-05-17T10:04:03.037Z,16.88
2023-05-17T10:06:44.567Z,15.07
2023-05-17T10:09:15.151Z,15.32
2023-05-17T10:11:44.510Z,14.30
2023-05-17T10:14:32.729Z,17.83
2023-05-17T10:17:02.019Z,15.55
2023-05-17T10:19:30.831Z,14.75
2023-05-17T10:22:21.580Z,14.68
2023-05-17T10:24:51.499Z,14.13
2023-05-17T10:27:19.980Z,15.73
2023-05-17T10:29:49.959Z,15.02
2023-05-17T10:32:19.300Z,14.73
2023-05-17T10:34:54.498Z,17.35
2023-05-17T10:37:29.868Z,14.63
2023-05-17T10:39:57.165Z,14.13
2023-05-17T10:42:24.774Z,13.52
2023-05-17T10:44:53.784Z,16.95
2023-05-17T10:47:20.511Z,13.88
2023-05-17T10:49:50.156Z,14.88
2023-05-17T10:52:17.848Z,13.47
2023-05-17T10:54:48.097Z,14.40
2023-05-17T10:57:22.073Z,14.27
2023-05-17T11:00:02.797Z,14.80
2023-05-17T11:02:31.619Z,16.23
2023-05-17T11:05:01.075Z,14.47
2023-05-17T11:07:31.824Z,13.70
2023-05-17T11:10:06.433Z,14.13
2023-05-17T11:12:43.803Z,16.10
2023-05-17T11:15:14.744Z,14.25
2023-05-17T11:17:44.761Z,21.47
2023-05-17T11:20:16.365Z,15.80
2023-05-17T11:22:49.626Z,15.27
2023-05-17T11:25:17.901Z,14.98
2023-05-17T11:27:45.739Z,19.58
2023-05-17T11:30:31.701Z,13.90
2023-05-17T11:32:58.781Z,17.33
2023-05-17T11:35:27.420Z,16.02
2023-05-17T11:37:54.867Z,18.38
2023-05-17T11:40:25.146Z,14.05
2023-05-17T11:43:10.081Z,16.00
2023-05-17T11:45:44.867Z,14.02
2023-05-17T11:48:14.761Z,15.05
2023-05-17T11:50:42.345Z,22.42
2023-05-17T11:53:10.192Z,17.17
2023-05-17T11:55:41.338Z,18.17
2023-05-17T11:58:14.099Z,14.88
2023-05-17T12:00:42.104Z,15.48
2023-05-17T12:03:16.386Z,16.80
2023-05-17T12:05:55.296Z,14.48
2023-05-17T12:08:27.585Z,16.30
2023-05-17T12:10:57.310Z,17.10
2023-05-17T12:13:23.923Z,17.02
2023-05-17T12:15:57.974Z,15.95
2023-05-17T12:18:35.830Z,20.92
2023-05-17T12:21:05.236Z,14.47
2023-05-17T12:23:42.218Z,16.88
2023-05-17T12:26:12.123Z,14.63
2023-05-17T12:28:40.875Z,14.93
2023-05-17T12:31:14.488Z,15.02
2023-05-17T12:33:43.220Z,14.80
2023-05-17T12:36:20.020Z,15.75
2023-05-17T12:38:49.137Z,16.13
2023-05-17T12:41:17.510Z,13.70
2023-05-17T12:44:06.342Z,15.15
2023-05-17T12:46:51.080Z,14.13
2023-05-17T12:49:21.689Z,15.55
2023-05-17T12:51:50.234Z,14.13
2023-05-17T12:54:31.602Z,19.10
2023-05-17T12:57:03.776Z,16.55
2023-05-17T12:59:37.166Z,15.70
2023-05-17T13:02:06.969Z,14.13
2023-05-17T13:04:37.113Z,15.68
2023-05-17T13:07:25.600Z,24.77
2023-05-17T13:09:53.729Z,15.25
2023-05-17T13:12:24.612Z,16.67
2023-05-17T13:14:57.854Z,16.40
2023-05-17T13:17:26.932Z,16.17
2023-05-17T13:19:55.199Z,15.85
2023-05-17T13:22:22.331Z,17.95
2023-05-17T13:24:55.281Z,15.30
2023-05-17T13:27:23.267Z,16.58
2023-05-17T13:29:51.537Z,16.58
2023-05-17T13:32:21.979Z,15.32
2023-05-17T13:34:52.800Z,18.13
2023-05-17T13:37:24.692Z,18.00
2023-05-17T13:39:56.163Z,35.95
2023-05-17T13:42:23.687Z,16.80
2023-05-17T13:44:51.275Z,16.60
2023-05-17T13:47:18.394Z,15.43
2023-05-17T13:49:47.799Z,21.60
2023-05-17T13:52:16.087Z,17.42
2023-05-17T13:54:43.680Z,14.95
2023-05-17T13:57:11.670Z,15.75
2023-05-17T13:59:40.532Z,18.70
2023-05-17T14:02:10.067Z,18.13
2023-05-17T14:04:37.060Z,14.63
2023-05-17T14:07:07.389Z,17.42
2023-05-17T14:09:41.287Z,16.73
2023-05-17T14:12:11.126Z,17.38
2023-05-17T14:14:40.286Z,15.73
2023-05-17T14:17:14.467Z,17.63
2023-05-17T14:19:41.644Z,22.20
2023-05-17T14:22:09.683Z,20.05
2023-05-17T14:24:39.633Z,15.73
2023-05-17T14:27:07.978Z,15.37
2023-05-17T14:29:38.096Z,17.48
2023-05-17T14:32:05.312Z,16.10
2023-05-17T14:34:32.598Z,21.27
2023-05-17T14:36:59.873Z,18.10
2023-05-17T14:39:27.218Z,13.43
2023-05-17T14:41:54.846Z,14.63
2023-05-17T14:44:22.991Z,14.80
2023-05-17T14:46:50.940Z,15.98
2023-05-17T14:49:18.745Z,19.30
2023-05-17T14:51:46.238Z,15.30
2023-05-17T14:54:17.260Z,16.10
2023-05-17T14:56:46.104Z,16.70
2023-05-17T14:59:20.284Z,15.15
2023-05-17T15:01:54.902Z,15.27
2023-05-17T15:04:23.281Z,17.80
2023-05-17T15:06:53.969Z,15.52
2023-05-17T15:09:23.249Z,15.90
2023-05-17T15:11:50.910Z,14.77
2023-05-17T15:14:22.992Z,16.95
2023-05-17T15:16:55.862Z,16.40
2023-05-17T15:19:25.910Z,13.77
2023-05-17T15:21:53.431Z,15.73
2023-05-17T15:24:22.103Z,17.05
2023-05-17T15:26:49.772Z,16.88
2023-05-17T15:29:19.847Z,14.97
2023-05-17T15:31:50.366Z,14.23
2023-05-17T15:34:19.259Z,14.95
2023-05-17T15:36:56.064Z,17.65
2023-05-17T15:39:26.233Z,20.05
2023-05-17T15:41:56.882Z,17.63
2023-05-17T15:44:26.467Z,16.30
2023-05-17T15:46:54.052Z,15.73
2023-05-17T15:49:21.397Z,17.83
2023-05-17T15:51:49.891Z,17.60
2023-05-17T15:54:17.272Z,18.03
2023-05-17T15:56:47.392Z,14.73
2023-05-17T15:59:15.896Z,17.27
2023-05-17T16:01:46.887Z,16.83
2023-05-17T16:04:14.402Z,19.02
2023-05-17T16:06:42.470Z,17.10
2023-05-17T16:09:10.062Z,15.63
2023-05-17T16:11:40.258Z,15.00
2023-05-17T16:14:07.541Z,14.50
2023-05-17T16:16:35.910Z,15.30
2023-05-17T16:19:05.475Z,15.00
2023-05-17T16:21:36.498Z,13.30
2023-05-17T16:24:24.948Z,15.50
2023-05-17T16:26:53.147Z,13.68
2023-05-17T16:29:23.705Z,14.18
2023-05-17T16:31:54.741Z,14.20
2023-05-17T16:34:22.207Z,12.93
2023-05-17T16:36:50.846Z,14.38
2023-05-17T16:39:18.281Z,13.80
2023-05-17T16:41:50.389Z,14.68
2023-05-17T16:44:19.523Z,14.80
2023-05-17T16:46:46.928Z,14.52
2023-05-17T16:49:17.564Z,14.18
2023-05-17T16:51:45.914Z,16.48
2023-05-17T16:54:15.561Z,17.27
2023-05-17T16:56:43.051Z,13.17
2023-05-17T16:59:10.637Z,14.05
2023-05-17T17:01:37.922Z,14.70
2023-05-17T17:04:05.303Z,13.38
2023-05-17T17:06:34.618Z,12.85
2023-05-17T17:09:07.887Z,16.00
2023-05-17T17:11:41.324Z,13.90
2023-05-17T17:14:09.351Z,14.10
2023-05-17T17:16:37.331Z,12.63
2023-05-17T17:19:05.077Z,19.38
2023-05-17T17:21:36.743Z,13.40
2023-05-17T17:24:06.381Z,13.45
2023-05-17T17:26:36.739Z,14.45
2023-05-17T17:29:04.876Z,12.60
2023-05-17T17:31:32.819Z,13.27
2023-05-17T17:34:02.397Z,11.43
2023-05-17T17:36:33.498Z,14.10
2023-05-17T17:39:02.558Z,12.32
2023-05-17T17:41:34.168Z,13.95
2023-05-17T17:44:01.648Z,11.93
2023-05-17T17:46:30.565Z,12.23
2023-05-17T17:49:01.730Z,13.68
2023-05-17T17:51:28.969Z,11.63
2023-05-17T17:53:58.026Z,12.20
2023-05-17T17:56:26.537Z,13.05
2023-05-17T17:58:56.624Z,12.33
2023-05-17T18:01:24.686Z,11.55
2023-05-17T18:03:51.913Z,13.07
2023-05-17T18:06:20.320Z,12.40
2023-05-17T18:08:48.189Z,13.52
2023-05-17T18:11:16.941Z,13.30
2023-05-17T18:13:45.042Z,12.43
2023-05-17T18:16:15.393Z,12.13
2023-05-17T18:18:42.462Z,13.43
2023-05-17T18:21:10.139Z,13.45
2023-05-17T18:23:37.723Z,11.37
2023-05-17T18:26:04.972Z,12.35
2023-05-17T18:28:41.796Z,12.80
2023-05-17T18:31:10.297Z,12.75
2023-05-17T18:33:37.482Z,13.38
2023-05-17T18:36:04.790Z,12.97
2023-05-17T18:38:32.942Z,15.95
2023-05-17T18:40:59.903Z,14.70
2023-05-17T18:43:29.962Z,11.38
2023-05-17T18:45:57.337Z,11.68
2023-05-17T18:48:24.953Z,11.73
2023-05-17T18:50:53.505Z,10.70
2023-05-17T18:53:20.412Z,11.40
2023-05-17T18:55:48.449Z,11.40
2023-05-17T18:58:16.189Z,13.07
2023-05-17T19:00:48.510Z,12.30
2023-05-17T19:03:16.709Z,12.68
2023-05-17T19:05:43.861Z,12.00
2023-05-17T19:08:12.287Z,12.30
2023-05-17T19:10:39.109Z,11.52
2023-05-17T19:13:09.122Z,12.67
2023-05-17T19:15:36.706Z,11.13
2023-05-17T19:18:05.229Z,11.90
2023-05-17T19:20:33.843Z,11.80
2023-05-17T19:23:01.354Z,13.05
2023-05-17T19:25:30.295Z,11.67
2023-05-17T19:28:07.358Z,11.00
2023-05-17T19:30:37.886Z,10.82
2023-05-17T19:33:05.756Z,10.88
2023-05-17T19:35:33.087Z,10.70
2023-05-17T19:38:03.305Z,9.73
2023-05-17T19:40:30.824Z,10.25
2023-05-17T19:42:58.545Z,10.18
2023-05-17T19:45:26.829Z,9.45
2023-05-17T19:47:57.912Z,10.82
2023-05-17T19:50:29.282Z,10.13
2023-05-17T19:53:00.977Z,13.02
2023-05-17T19:55:30.367Z,10.15
2023-05-17T19:57:57.752Z,10.38
2023-05-17T20:00:25.904Z,10.23
2023-05-17T20:02:53.073Z,8.53
2023-05-17T20:05:20.614Z,10.18
2023-05-17T20:07:47.991Z,10.52
2023-05-17T20:10:17.042Z,11.32
2023-05-17T20:12:45.382Z,8.68
2023-05-17T20:15:13.591Z,7.93
2023-05-17T20:17:43.814Z,7.40
2023-05-17T20:20:14.436Z,8.55
2023-05-17T20:22:43.197Z,8.38
2023-05-17T20:25:12.091Z,8.05
2023-05-17T20:27:38.980Z,7.50
2023-05-17T20:30:08.828Z,7.05
2023-05-17T20:32:36.179Z,7.45
2023-05-17T20:35:02.981Z,8.13
2023-05-17T20:37:30.220Z,8.10
2023-05-17T20:40:00.319Z,7.10
2023-05-17T20:42:28.694Z,7.22
2023-05-17T20:44:55.974Z,7.22
2023-05-17T20:47:23.735Z,7.10
2023-05-17T20:49:52.436Z,7.57
2023-05-17T20:52:27.784Z,7.27
2023-05-17T20:55:05.257Z,7.40
2023-05-17T20:57:32.493Z,7.38
2023-05-17T20:59:59.744Z,7.63
2023-05-17T21:02:26.810Z,7.65
2023-05-17T21:04:55.736Z,7.50
2023-05-17T21:07:22.894Z,7.65
2023-05-17T21:09:49.572Z,7.75
2023-05-17T21:12:16.652Z,7.50
2023-05-17T21:14:43.633Z,8.30
2023-05-17T21:17:10.732Z,6.40
2023-05-17T21:19:38.062Z,7.10
2023-05-17T21:22:05.478Z,8.10
2023-05-17T21:24:33.292Z,7.25
2023-05-17T21:27:01.942Z,7.97
2023-05-17T21:29:29.286Z,7.43
2023-05-17T21:31:59.453Z,7.05
2023-05-17T21:34:28.141Z,7.82
2023-05-17T21:36:56.184Z,8.43
2023-05-17T21:39:23.227Z,7.05
2023-05-17T21:41:51.644Z,6.57
2023-05-17T21:44:18.973Z,6.53
2023-05-17T21:46:46.401Z,6.75
2023-05-17T21:49:13.286Z,6.78
2023-05-17T21:51:41.892Z,6.90
2023-05-17T21:54:09.225Z,7.37
2023-05-17T21:56:36.449Z,6.95
2023-05-17T21:59:05.343Z,7.68
2023-05-17T22:01:32.679Z,7.03
2023-05-17T22:04:00.910Z,7.10
2023-05-17T22:06:28.767Z,5.87
2023-05-17T22:08:56.852Z,7.03
2023-05-17T22:11:26.907Z,6.93
2023-05-17T22:13:56.325Z,6.53
2023-05-17T22:16:24.268Z,7.65
2023-05-17T22:18:54.755Z,7.10
2023-05-17T22:21:22.942Z,6.90
2023-05-17T22:23:50.173Z,7.38
2023-05-17T22:26:17.331Z,6.47
2023-05-17T22:28:44.134Z,6.60
2023-05-17T22:31:14.518Z,5.87
2023-05-17T22:33:42.085Z,6.38
2023-05-17T22:36:14.260Z,6.40
2023-05-17T22:38:43.068Z,7.00
2023-05-17T22:41:12.140Z,6.38
2023-05-17T22:43:39.579Z,6.00
2023-05-17T22:46:07.128Z,6.05
2023-05-17T22:48:34.444Z,5.35
2023-05-17T22:51:01.827Z,6.18
2023-05-17T22:53:29.933Z,6.65
2023-05-17T22:55:57.355Z,5.70
2023-05-17T22:58:25.192Z,5.55
2023-05-17T23:00:52.730Z,5.93
2023-05-17T23:03:20.022Z,6.10
2023-05-17T23:05:49.992Z,5.82
2023-05-17T23:08:17.838Z,6.83
2023-05-17T23:10:45.761Z,6.18
2023-05-17T23:13:14.322Z,5.78
2023-05-17T23:15:50.101Z,6.45
2023-05-17T23:18:19.198Z,5.68
2023-05-17T23:20:46.926Z,5.70
2023-05-17T23:23:14.101Z,5.82
2023-05-17T23:25:40.906Z,5.88
2023-05-17T23:28:08.632Z,5.35
2023-05-17T23:30:38.647Z,6.20
2023-05-17T23:33:06.258Z,5.67
2023-05-17T23:35:33.351Z,6.00
2023-05-17T23:38:00.814Z,6.00
2023-05-17T23:40:27.515Z,5.82
2023-05-17T23:42:54.996Z,6.72
2023-05-17T23:45:22.381Z,6.07
2023-05-17T23:47:50.701Z,6.85
2023-05-17T23:50:18.432Z,6.05
2023-05-17T23:52:45.505Z,5.00
2023-05-17T23:55:12.600Z,6.40
2023-05-17T23:57:40.484Z,5.40
